Time;durP1;ratioP1;P1;durP2;ratioP2;P2;SDS_P1;SDS_P2;PMS_P1;PMS_P2;Temp;Humidity;BMP_temperature;BMP_pressure;BME280_temperature;BME280_humidity;BME280_pressure;Samples;Min_cycle;Max_cycle;Signal;HPM_P1;HPM_P2
2022/12/07 00:01:13;;;;;;;5.40;1.42;;;5.50;99.90;;;;;;5112111;28;20384;-70
2022/12/07 00:03:40;;;;;;;7.95;1.52;;;5.50;99.90;;;;;;5111597;28;20043;-70
2022/12/07 00:06:08;;;;;;;11.88;1.70;;;5.40;99.90;;;;;;5110737;28;20373;-70
2022/12/07 00:08:35;;;;;;;5.70;1.50;;;5.40;99.90;;;;;;5111588;28;20126;-69
2022/12/07 00:11:05;;;;;;;7.65;2.08;;;5.30;99.90;;;;;;5111473;28;20050;-69
2022/12/07 00:13:32;;;;;;;6.70;1.30;;;5.30;99.90;;;;;;5093707;28;20052;-69
2022/12/07 00:16:09;;;;;;;8.07;1.65;;;5.20;99.90;;;;;;5111583;28;20425;-69
2022/12/07 00:18:35;;;;;;;7.10;2.08;;;5.20;99.90;;;;;;5112999;28;20028;-69
2022/12/07 00:21:03;;;;;;;6.63;1.38;;;5.20;99.90;;;;;;5110825;28;20035;-69
2022/12/07 00:23:29;;;;;;;9.15;1.73;;;5.10;99.90;;;;;;5112578;28;20492;-69
2022/12/07 00:25:54;;;;;;;5.95;1.50;;;5.10;99.90;;;;;;5112352;28;20043;-69
2022/12/07 00:28:20;;;;;;;7.47;1.40;;;5.10;99.90;;;;;;5111157;28;20492;-69
2022/12/07 00:30:45;;;;;;;9.35;2.05;;;5.00;99.90;;;;;;5112810;28;20465;-69
2022/12/07 00:33:11;;;;;;;9.27;2.00;;;4.90;99.90;;;;;;5112159;28;20046;-69
2022/12/07 00:35:37;;;;;;;7.38;1.70;;;4.90;99.90;;;;;;5093553;28;20054;-69
2022/12/07 00:38:02;;;;;;;11.10;2.88;;;4.90;99.90;;;;;;5112402;28;20042;-70
2022/12/07 00:40:28;;;;;;;5.00;1.30;;;4.80;99.90;;;;;;5111882;28;20034;-69
2022/12/07 00:42:54;;;;;;;6.93;1.70;;;4.70;99.90;;;;;;5111675;28;20044;-69
2022/12/07 00:45:19;;;;;;;12.43;2.03;;;4.70;99.90;;;;;;5112157;28;20404;-69
2022/12/07 00:47:45;;;;;;;6.68;1.90;;;4.60;99.90;;;;;;5111897;28;20067;-69
2022/12/07 00:50:10;;;;;;;8.27;1.60;;;4.60;99.90;;;;;;5111887;28;20046;-69
2022/12/07 00:52:36;;;;;;;4.93;1.63;;;4.60;99.90;;;;;;5112372;28;20122;-69
2022/12/07 00:55:02;;;;;;;8.50;2.08;;;4.50;99.90;;;;;;5111497;28;20112;-69
2022/12/07 00:57:29;;;;;;;10.77;2.28;;;4.60;99.90;;;;;;5110579;28;20044;-69
2022/12/07 00:59:57;;;;;;;7.95;2.30;;;4.70;99.90;;;;;;5111465;28;20043;-69
2022/12/07 01:02:23;;;;;;;10.05;1.80;;;4.80;99.90;;;;;;5109954;28;20073;-69
2022/12/07 01:04:49;;;;;;;9.45;2.25;;;4.90;99.90;;;;;;5111338;28;20066;-69
2022/12/07 01:07:15;;;;;;;8.15;1.83;;;5.00;99.90;;;;;;5110341;28;20469;-69
2022/12/07 01:09:40;;;;;;;4.95;1.17;;;5.00;99.90;;;;;;5111546;28;20043;-69
2022/12/07 01:12:06;;;;;;;6.25;1.33;;;5.10;99.90;;;;;;5111485;28;20063;-69
2022/12/07 01:14:32;;;;;;;6.00;1.35;;;5.10;99.90;;;;;;5111013;28;20122;-69
2022/12/07 01:16:57;;;;;;;7.55;1.35;;;5.20;99.90;;;;;;5111874;28;20032;-69
2022/12/07 01:19:23;;;;;;;6.30;1.52;;;5.20;99.90;;;;;;5097454;28;20475;-69
2022/12/07 01:21:48;;;;;;;8.23;1.50;;;5.20;99.90;;;;;;5115857;28;20038;-69
2022/12/07 01:24:14;;;;;;;7.22;1.00;;;5.20;99.90;;;;;;5113247;28;20050;-69
2022/12/07 01:26:40;;;;;;;4.50;0.90;;;5.20;99.90;;;;;;5114353;28;20105;-69
2022/12/07 01:29:06;;;;;;;6.25;1.20;;;5.20;99.90;;;;;;5115385;28;20122;-69
2022/12/07 01:31:33;;;;;;;5.43;1.23;;;5.10;99.90;;;;;;5113486;28;20162;-69
2022/12/07 01:34:00;;;;;;;4.28;1.55;;;5.10;99.90;;;;;;5114409;28;20540;-69
2022/12/07 01:36:33;;;;;;;6.72;1.15;;;5.10;99.90;;;;;;5096656;28;20043;-69
2022/12/07 01:39:04;;;;;;;8.88;1.25;;;5.00;99.90;;;;;;5113507;28;20182;-69
2022/12/07 01:41:33;;;;;;;6.18;1.77;;;4.90;99.90;;;;;;5114507;28;20122;-69
2022/12/07 01:44:32;;;;;;;4.95;1.08;;;4.90;99.90;;;;;;5113663;28;20043;-69
2022/12/07 01:47:04;;;;;;;8.90;1.88;;;4.80;99.90;;;;;;5114467;28;20043;-69
2022/12/07 01:49:37;;;;;;;7.00;1.15;;;4.70;99.90;;;;;;5114044;28;20131;-69
2022/12/07 01:52:15;;;;;;;4.85;1.25;;;4.60;99.90;;;;;;5113097;28;20114;-69
2022/12/07 01:54:43;;;;;;;4.60;1.27;;;4.60;99.90;;;;;;5115440;28;20081;-69
2022/12/07 01:57:10;;;;;;;7.88;2.60;;;4.50;99.90;;;;;;5113496;28;20209;-69
2022/12/07 01:59:36;;;;;;;8.30;1.63;;;4.40;99.90;;;;;;5113105;28;20064;-69
2022/12/07 02:02:07;;;;;;;7.40;1.65;;;4.40;99.90;;;;;;5113901;28;20115;-69
2022/12/07 02:04:35;;;;;;;7.00;1.40;;;4.40;99.90;;;;;;5114211;28;20476;-69
2022/12/07 02:07:01;;;;;;;9.77;2.83;;;4.40;99.90;;;;;;5112951;28;20047;-69
2022/12/07 02:09:26;;;;;;;9.32;1.67;;;4.30;99.90;;;;;;5113072;28;20484;-69
2022/12/07 02:11:53;;;;;;;8.65;1.30;;;4.30;99.90;;;;;;5114902;28;20080;-69
2022/12/07 02:14:19;;;;;;;5.47;1.40;;;4.30;99.90;;;;;;5112400;28;20488;-69
2022/12/07 02:16:58;;;;;;;9.13;1.65;;;4.20;99.90;;;;;;5113723;28;20053;-69
2022/12/07 02:19:50;;;;;;;8.70;1.48;;;4.20;99.90;;;;;;5113561;28;20040;-69
2022/12/07 02:22:33;;;;;;;7.30;1.38;;;4.20;99.90;;;;;;5112956;28;20039;-70
2022/12/07 02:25:13;;;;;;;18.40;2.20;;;4.10;99.90;;;;;;5113476;28;20039;-69
2022/12/07 02:27:56;;;;;;;8.77;2.03;;;4.20;99.90;;;;;;5112002;28;20124;-69
2022/12/07 02:30:25;;;;;;;7.40;1.33;;;4.10;99.90;;;;;;5112747;28;20041;-69
2022/12/07 02:32:56;;;;;;;10.05;1.67;;;4.20;99.90;;;;;;5113418;28;20053;-69
2022/12/07 02:35:30;;;;;;;5.85;1.33;;;4.20;99.90;;;;;;5111655;28;20039;-69
2022/12/07 02:38:15;;;;;;;6.25;1.40;;;4.20;99.90;;;;;;5114456;28;20520;-70
2022/12/07 02:40:48;;;;;;;7.22;2.05;;;4.20;99.90;;;;;;5113694;28;20042;-69
2022/12/07 02:43:32;;;;;;;11.10;1.85;;;4.20;99.90;;;;;;5113814;28;20476;-69
2022/12/07 02:46:02;;;;;;;11.18;2.00;;;4.20;99.90;;;;;;5112842;28;20511;-70
2022/12/07 02:49:06;;;;;;;9.40;1.90;;;4.20;99.90;;;;;;5113035;27;20498;-70
2022/12/07 02:51:32;;;;;;;6.53;1.38;;;4.20;99.90;;;;;;5112924;28;20043;-70
2022/12/07 02:53:59;;;;;;;7.32;1.33;;;4.20;99.90;;;;;;5112877;28;20423;-70
2022/12/07 02:56:43;;;;;;;11.95;1.77;;;4.20;99.90;;;;;;5112656;28;20040;-69
2022/12/07 02:59:36;;;;;;;13.85;1.95;;;4.30;99.90;;;;;;5112379;28;20040;-70
2022/12/07 03:02:26;;;;;;;7.65;1.90;;;4.50;99.90;;;;;;5094971;28;20123;-70
2022/12/07 03:05:28;;;;;;;7.97;2.03;;;4.60;99.90;;;;;;5112625;28;20047;-69
2022/12/07 03:08:28;;;;;;;10.65;2.15;;;4.70;99.90;;;;;;5112620;28;20073;-69
2022/12/07 03:11:04;;;;;;;10.00;2.08;;;4.70;99.90;;;;;;5112488;28;20047;-69
2022/12/07 03:13:37;;;;;;;15.35;2.55;;;4.60;99.90;;;;;;5112525;28;20082;-69
2022/12/07 03:16:16;;;;;;;10.15;3.33;;;4.60;99.90;;;;;;5111663;28;20036;-69
2022/12/07 03:18:54;;;;;;;7.28;1.60;;;4.60;99.90;;;;;;5113601;28;20503;-69
2022/12/07 03:21:27;;;;;;;8.77;1.83;;;4.60;99.90;;;;;;5111946;28;20051;-69
2022/12/07 03:23:57;;;;;;;7.30;1.63;;;4.60;99.90;;;;;;5111614;28;20043;-69
2022/12/07 03:26:31;;;;;;;7.97;1.80;;;4.70;99.90;;;;;;5111610;28;20120;-69
2022/12/07 03:29:04;;;;;;;9.27;1.50;;;4.70;99.90;;;;;;5112222;28;20086;-69
2022/12/07 03:31:33;;;;;;;7.38;1.60;;;4.60;99.90;;;;;;5112597;28;20039;-69
2022/12/07 03:34:17;;;;;;;6.47;1.60;;;4.60;99.90;;;;;;5111868;28;20134;-69
2022/12/07 03:37:24;;;;;;;9.52;2.85;;;4.60;99.90;;;;;;5111501;28;20443;-69
2022/12/07 03:40:07;;;;;;;11.27;1.55;;;4.70;99.90;;;;;;5094995;28;20126;-69
2022/12/07 03:42:33;;;;;;;9.05;2.25;;;4.70;99.90;;;;;;5095165;28;20077;-69
2022/12/07 03:45:01;;;;;;;9.02;1.55;;;4.80;99.90;;;;;;5112629;28;20093;-69
2022/12/07 03:47:48;;;;;;;7.72;1.77;;;4.90;99.90;;;;;;5111327;28;20047;-70
2022/12/07 03:50:31;;;;;;;11.25;1.88;;;4.90;99.90;;;;;;5112669;28;20414;-69
2022/12/07 03:53:09;;;;;;;10.05;1.75;;;4.90;99.90;;;;;;5111589;28;20480;-69
2022/12/07 03:55:39;;;;;;;6.75;1.75;;;4.90;99.90;;;;;;5111740;28;20047;-69
2022/12/07 03:58:10;;;;;;;8.73;1.60;;;4.90;99.90;;;;;;5111861;28;20031;-69
2022/12/07 04:00:36;;;;;;;4.80;1.38;;;4.90;99.90;;;;;;5111850;28;20111;-69
2022/12/07 04:03:01;;;;;;;5.47;1.20;;;4.90;99.90;;;;;;5111531;28;20455;-70
2022/12/07 04:05:27;;;;;;;7.22;1.45;;;4.80;99.90;;;;;;5110335;28;20043;-69
2022/12/07 04:07:53;;;;;;;8.48;1.33;;;4.80;99.90;;;;;;5113006;28;20114;-69
2022/12/07 04:10:19;;;;;;;7.03;1.10;;;4.80;99.90;;;;;;5111051;28;20082;-69
2022/12/07 04:12:45;;;;;;;6.95;1.40;;;4.80;99.90;;;;;;5112065;28;20046;-69
2022/12/07 04:15:11;;;;;;;10.68;1.63;;;4.80;99.90;;;;;;5111222;28;20392;-68
2022/12/07 04:17:37;;;;;;;8.48;1.40;;;4.80;99.90;;;;;;5112407;28;20046;-69
2022/12/07 04:20:05;;;;;;;8.82;1.33;;;4.70;99.90;;;;;;5111042;28;20044;-69
2022/12/07 04:22:30;;;;;;;8.05;1.80;;;4.70;99.90;;;;;;5111541;28;20035;-69
2022/12/07 04:24:56;;;;;;;5.88;1.60;;;4.70;99.90;;;;;;5112832;28;20035;-69
2022/12/07 04:27:22;;;;;;;10.23;1.88;;;4.60;99.90;;;;;;5111158;28;20055;-69
2022/12/07 04:29:47;;;;;;;12.10;2.45;;;4.60;99.90;;;;;;5112568;28;20051;-69
2022/12/07 04:32:13;;;;;;;10.75;2.17;;;4.50;99.90;;;;;;5111883;28;20041;-69
2022/12/07 04:34:39;;;;;;;11.20;1.45;;;4.50;99.90;;;;;;5111780;28;20036;-69
2022/12/07 04:37:04;;;;;;;7.25;1.65;;;4.50;99.90;;;;;;5111107;28;20047;-69
2022/12/07 04:39:31;;;;;;;9.85;1.90;;;4.40;99.90;;;;;;5112696;28;20031;-69
2022/12/07 04:41:58;;;;;;;5.95;1.52;;;4.30;99.90;;;;;;5093900;28;20395;-69
2022/12/07 04:44:25;;;;;;;10.50;2.05;;;4.20;99.90;;;;;;5110721;28;20047;-69
2022/12/07 04:46:51;;;;;;;7.32;1.98;;;4.20;99.90;;;;;;5093240;28;20533;-69
2022/12/07 04:49:18;;;;;;;8.73;2.10;;;4.10;99.90;;;;;;5111015;28;20048;-69
2022/12/07 04:51:44;;;;;;;12.07;1.92;;;4.10;99.90;;;;;;5112432;28;20051;-69
2022/12/07 04:54:10;;;;;;;12.00;2.00;;;4.00;99.90;;;;;;5113754;28;20051;-69
2022/12/07 04:56:36;;;;;;;7.75;2.10;;;4.00;99.90;;;;;;5115071;28;20044;-69
2022/12/07 04:59:02;;;;;;;9.35;1.70;;;3.90;99.90;;;;;;5115205;28;20050;-69
2022/12/07 05:01:28;;;;;;;11.07;1.83;;;3.80;99.90;;;;;;5113831;28;20802;-69
2022/12/07 05:03:54;;;;;;;6.70;1.40;;;3.80;99.90;;;;;;5116488;28;20036;-69
2022/12/07 05:06:19;;;;;;;8.85;1.70;;;3.80;99.90;;;;;;5114746;28;20476;-69
2022/12/07 05:08:45;;;;;;;8.43;1.77;;;3.70;99.90;;;;;;5114386;28;20500;-69
2022/12/07 05:11:37;;;;;;;9.13;1.40;;;3.70;99.90;;;;;;5115607;28;20430;-69
2022/12/07 05:13:58;;;;;;;8.02;1.60;;;3.70;99.90;;;;;;5115719;28;20112;-69
2022/12/07 05:16:24;;;;;;;11.07;2.13;;;3.60;99.90;;;;;;5114735;28;20488;-69
2022/12/07 05:18:50;;;;;;;14.57;2.15;;;3.60;99.90;;;;;;5115887;28;20036;-69
2022/12/07 05:21:15;;;;;;;12.60;2.10;;;3.70;99.90;;;;;;5113993;28;20040;-69
2022/12/07 05:23:41;;;;;;;7.28;1.58;;;3.80;99.90;;;;;;5115199;28;20040;-70
2022/12/07 05:26:07;;;;;;;9.20;1.90;;;4.00;99.90;;;;;;5114107;28;20382;-69
2022/12/07 05:28:32;;;;;;;7.25;1.80;;;4.20;99.90;;;;;;5114424;28;20044;-70
2022/12/07 05:30:58;;;;;;;10.18;2.40;;;4.20;99.90;;;;;;5113632;28;20075;-70
2022/12/07 05:33:23;;;;;;;11.40;2.05;;;4.30;99.90;;;;;;5115227;28;20040;-70
2022/12/07 05:35:49;;;;;;;7.30;1.80;;;4.30;99.90;;;;;;5114392;28;20395;-70
2022/12/07 05:38:15;;;;;;;9.57;2.30;;;4.30;99.90;;;;;;5113187;28;20035;-70
2022/12/07 05:40:40;;;;;;;8.40;2.08;;;4.30;99.90;;;;;;5097523;28;20396;-69
2022/12/07 05:43:06;;;;;;;10.00;2.28;;;4.20;99.90;;;;;;5112718;28;20050;-70
2022/12/07 05:45:32;;;;;;;7.57;1.80;;;4.30;99.90;;;;;;5114210;28;20040;-70
2022/12/07 05:47:57;;;;;;;6.55;1.80;;;4.20;99.90;;;;;;5115715;28;20043;-69
2022/12/07 05:50:23;;;;;;;9.05;2.05;;;4.20;99.90;;;;;;5114294;28;20043;-70
2022/12/07 05:52:49;;;;;;;11.90;2.30;;;4.20;99.90;;;;;;5114145;28;20043;-69
2022/12/07 05:55:14;;;;;;;10.57;2.13;;;4.20;99.90;;;;;;5114787;28;20028;-70
2022/12/07 05:59:22;;;;;;;6.00;1.60;;;4.20;99.90;;;;;;5114151;28;20069;-70
2022/12/07 06:00:25;;;;;;;;;;;4.10;99.90;;;;;;5114978;28;20048;-69
2022/12/07 06:02:51;;;;;;;10.32;1.90;;;4.10;99.90;;;;;;5114141;28;19923;-70
2022/12/07 06:05:17;;;;;;;5.72;1.65;;;4.00;99.90;;;;;;5113581;28;20036;-70
2022/12/07 06:07:42;;;;;;;10.52;2.63;;;4.10;99.90;;;;;;5113862;28;20035;-69
2022/12/07 06:10:08;;;;;;;7.43;2.10;;;4.20;99.90;;;;;;5113055;28;20086;-70
2022/12/07 06:12:34;;;;;;;8.63;2.47;;;4.30;99.90;;;;;;5112962;28;20036;-69
2022/12/07 06:15:00;;;;;;;9.55;2.63;;;4.30;99.90;;;;;;5113724;28;20096;-70
2022/12/07 06:17:25;;;;;;;7.97;2.15;;;4.30;99.90;;;;;;5113083;28;20080;-69
2022/12/07 06:19:51;;;;;;;6.47;2.03;;;4.30;99.90;;;;;;5114075;28;20100;-69
2022/12/07 06:22:17;;;;;;;5.55;1.83;;;4.30;99.90;;;;;;5112983;28;20118;-69
2022/12/07 06:24:43;;;;;;;9.05;1.90;;;4.30;99.90;;;;;;5113471;28;20039;-70
2022/12/07 06:27:09;;;;;;;10.48;1.83;;;4.20;99.90;;;;;;5111694;28;20096;-69
2022/12/07 06:29:35;;;;;;;7.72;1.73;;;4.10;99.90;;;;;;5114303;28;20384;-69
2022/12/07 06:32:01;;;;;;;6.78;2.10;;;4.00;99.90;;;;;;5114578;28;20035;-69
2022/12/07 06:34:27;;;;;;;8.48;1.98;;;4.00;99.90;;;;;;5094898;28;20044;-69
2022/12/07 06:36:54;;;;;;;10.48;2.42;;;3.90;99.90;;;;;;5096485;28;20089;-69
2022/12/07 06:39:25;;;;;;;7.07;2.40;;;3.90;99.90;;;;;;5112172;28;20548;-69
2022/12/07 06:41:52;;;;;;;11.85;1.92;;;3.90;99.90;;;;;;5112927;28;20503;-69
2022/12/07 06:44:18;;;;;;;8.38;2.08;;;4.00;99.90;;;;;;5112592;28;20051;-69
2022/12/07 06:46:44;;;;;;;8.50;1.70;;;4.10;99.90;;;;;;5095238;28;20812;-69
2022/12/07 06:49:10;;;;;;;10.13;1.80;;;4.20;99.90;;;;;;5113616;28;20101;-68
2022/12/07 06:51:40;;;;;;;11.00;2.10;;;4.20;99.90;;;;;;5112850;28;20403;-68
2022/12/07 06:54:07;;;;;;;9.18;2.20;;;4.20;99.90;;;;;;5111620;28;20543;-68
2022/12/07 06:56:32;;;;;;;10.55;2.30;;;4.20;99.90;;;;;;5112750;28;20086;-69
2022/12/07 06:58:58;;;;;;;7.28;2.15;;;4.20;99.90;;;;;;5112853;28;20063;-69
2022/12/07 07:01:24;;;;;;;15.73;3.00;;;4.20;99.90;;;;;;5111541;28;20044;-69
2022/12/07 07:03:49;;;;;;;9.27;2.33;;;4.20;99.90;;;;;;5112829;28;20126;-69
2022/12/07 07:06:15;;;;;;;8.48;2.33;;;4.10;99.90;;;;;;5112353;28;20042;-69
2022/12/07 07:08:41;;;;;;;7.47;1.98;;;4.10;99.90;;;;;;5113116;28;20071;-69
2022/12/07 07:11:08;;;;;;;12.88;1.85;;;4.00;99.90;;;;;;5112193;28;20043;-69
2022/12/07 07:13:34;;;;;;;8.57;1.80;;;4.00;99.90;;;;;;5112442;28;20046;-69
2022/12/07 07:16:00;;;;;;;8.70;2.30;;;3.90;99.90;;;;;;5111207;28;20400;-69
2022/12/07 07:18:26;;;;;;;10.57;2.97;;;3.80;99.90;;;;;;5113194;28;20067;-69
2022/12/07 07:20:52;;;;;;;8.90;2.33;;;3.70;99.90;;;;;;5112423;28;20085;-69
2022/12/07 07:23:18;;;;;;;7.45;2.25;;;3.70;99.90;;;;;;5112447;28;20043;-69
2022/12/07 07:25:44;;;;;;;8.05;2.05;;;3.60;99.90;;;;;;5113586;28;20044;-69
2022/12/07 07:28:10;;;;;;;8.77;2.40;;;3.70;99.90;;;;;;5111548;28;20052;-69
2022/12/07 07:30:36;;;;;;;7.35;1.90;;;3.60;99.90;;;;;;5112745;28;20079;-69
2022/12/07 07:33:03;;;;;;;9.18;2.67;;;3.60;99.90;;;;;;5113354;28;20075;-69
2022/12/07 07:35:31;;;;;;;14.27;2.65;;;3.60;99.90;;;;;;5112165;28;20040;-69
2022/12/07 07:37:57;;;;;;;11.15;2.00;;;3.70;99.90;;;;;;5094595;28;20365;-69
2022/12/07 07:40:23;;;;;;;10.35;2.20;;;3.80;99.90;;;;;;5112754;28;20046;-70
2022/12/07 07:42:50;;;;;;;11.30;2.05;;;3.90;99.90;;;;;;5111236;28;20116;-70
2022/12/07 07:45:15;;;;;;;8.07;2.13;;;4.10;99.90;;;;;;5112672;28;20070;-70
2022/12/07 07:47:41;;;;;;;11.75;2.10;;;4.20;99.90;;;;;;5113212;28;20132;-70
2022/12/07 07:50:07;;;;;;;8.27;1.90;;;4.20;99.90;;;;;;5110830;28;20062;-70
2022/12/07 07:52:33;;;;;;;5.18;1.98;;;4.30;99.90;;;;;;5112048;28;20468;-70
2022/12/07 07:54:58;;;;;;;7.28;2.00;;;4.30;99.90;;;;;;5111816;28;20067;-69
2022/12/07 07:57:25;;;;;;;6.82;1.67;;;4.30;99.90;;;;;;5110358;28;20092;-70
2022/12/07 07:59:51;;;;;;;12.95;2.00;;;4.30;99.90;;;;;;5113020;28;20073;-70
2022/12/07 08:02:18;;;;;;;8.07;1.67;;;4.30;99.90;;;;;;5111284;28;20071;-70
2022/12/07 08:04:45;;;;;;;6.32;1.83;;;4.20;99.90;;;;;;5109107;28;20122;-69
2022/12/07 08:07:11;;;;;;;6.75;1.98;;;4.20;99.90;;;;;;5111644;28;20044;-70
2022/12/07 08:09:37;;;;;;;5.78;1.10;;;4.20;99.90;;;;;;5111878;28;20454;-70
2022/12/07 08:12:03;;;;;;;9.57;1.75;;;4.20;99.90;;;;;;5110286;28;20114;-70
2022/12/07 08:14:31;;;;;;;10.48;2.00;;;4.30;99.90;;;;;;5111480;28;20040;-70
2022/12/07 08:16:57;;;;;;;5.28;1.75;;;4.30;99.90;;;;;;5112783;28;20085;-70
2022/12/07 08:19:23;;;;;;;6.25;1.90;;;4.30;99.90;;;;;;5105983;28;20051;-70
2022/12/07 08:21:48;;;;;;;4.32;1.40;;;4.30;99.90;;;;;;5109632;28;20047;-69
2022/12/07 08:24:14;;;;;;;5.85;1.52;;;4.30;99.90;;;;;;5108210;28;20047;-70
2022/12/07 08:26:41;;;;;;;7.88;1.45;;;4.40;99.90;;;;;;5110538;28;20464;-70
2022/12/07 08:29:07;;;;;;;4.70;1.10;;;4.40;99.90;;;;;;5110658;28;20047;-69
2022/12/07 08:31:33;;;;;;;6.38;1.48;;;4.40;99.90;;;;;;5113270;28;20032;-69
2022/12/07 08:33:59;;;;;;;4.93;1.40;;;4.50;99.90;;;;;;5112393;28;20575;-69
2022/12/07 08:36:25;;;;;;;3.92;1.25;;;4.50;99.90;;;;;;5109997;28;20120;-69
2022/12/07 08:38:50;;;;;;;7.78;1.35;;;4.50;99.90;;;;;;5110903;28;20035;-70
2022/12/07 08:41:16;;;;;;;10.27;2.00;;;4.50;99.90;;;;;;5111228;28;20036;-70
2022/12/07 08:43:42;;;;;;;6.43;1.67;;;4.60;99.90;;;;;;5112758;28;20051;-69
2022/12/07 08:46:19;;;;;;;7.60;1.77;;;4.60;99.90;;;;;;5108154;27;20066;-69
2022/12/07 08:48:51;;;;;;;8.82;1.75;;;4.60;99.90;;;;;;5112853;28;20082;-69
2022/12/07 08:51:17;;;;;;;8.02;1.42;;;4.70;99.90;;;;;;5109491;28;20114;-69
2022/12/07 08:53:43;;;;;;;7.53;2.55;;;4.70;99.90;;;;;;5109995;28;20138;-69
2022/12/07 08:56:09;;;;;;;6.80;1.58;;;4.70;99.90;;;;;;5110857;28;20073;-69
2022/12/07 08:58:36;;;;;;;6.50;1.50;;;4.70;99.90;;;;;;5112406;28;20484;-68
2022/12/07 09:01:02;;;;;;;5.18;1.20;;;4.60;99.90;;;;;;5104575;28;20036;-68
2022/12/07 09:03:28;;;;;;;7.82;1.42;;;4.60;99.90;;;;;;5111928;28;20090;-69
2022/12/07 09:05:54;;;;;;;8.15;1.45;;;4.60;99.90;;;;;;5103953;28;20481;-68
2022/12/07 09:08:21;;;;;;;5.30;2.00;;;4.50;99.90;;;;;;5102146;28;20035;-68
2022/12/07 09:10:47;;;;;;;6.07;1.73;;;4.50;99.90;;;;;;5105320;28;20043;-68
2022/12/07 09:13:13;;;;;;;7.85;3.40;;;4.50;99.90;;;;;;5091072;28;20040;-68
2022/12/07 09:15:39;;;;;;;8.68;1.70;;;4.50;99.90;;;;;;5090681;28;20824;-68
2022/12/07 09:18:05;;;;;;;6.10;2.00;;;4.40;99.90;;;;;;5090767;28;20089;-68
2022/12/07 09:20:30;;;;;;;7.68;1.58;;;4.40;99.90;;;;;;5093595;28;20473;-68
2022/12/07 09:22:56;;;;;;;7.38;2.00;;;4.40;99.90;;;;;;5109993;28;20047;-68
2022/12/07 09:25:22;;;;;;;5.32;2.08;;;4.30;99.90;;;;;;5094341;28;20142;-68
2022/12/07 09:27:47;;;;;;;6.40;2.40;;;4.40;99.90;;;;;;5111755;28;20055;-68
2022/12/07 09:30:13;;;;;;;9.13;2.97;;;4.40;99.90;;;;;;5111007;28;20050;-68
2022/12/07 09:32:39;;;;;;;7.53;3.55;;;4.50;99.90;;;;;;5111455;28;20078;-69
2022/12/07 09:35:05;;;;;;;9.20;2.20;;;4.60;99.90;;;;;;5109062;28;20035;-68
2022/12/07 09:37:34;;;;;;;7.90;1.65;;;4.60;99.90;;;;;;5109693;28;20054;-69
2022/12/07 09:40:00;;;;;;;9.93;2.45;;;4.70;99.90;;;;;;5093297;28;20039;-69
2022/12/07 09:42:36;;;;;;;9.88;2.00;;;4.70;99.90;;;;;;5109510;27;20385;-69
2022/12/07 09:45:05;;;;;;;8.40;2.72;;;4.70;99.90;;;;;;5110517;28;20051;-69
2022/12/07 09:47:33;;;;;;;7.72;1.98;;;4.80;99.90;;;;;;5111310;28;20182;-69
2022/12/07 09:50:27;;;;;;;7.03;1.85;;;4.80;99.90;;;;;;5110251;28;20075;-71
2022/12/07 09:52:55;;;;;;;11.43;2.90;;;4.90;99.90;;;;;;5107798;28;20044;-68
2022/12/07 09:55:27;;;;;;;8.32;2.42;;;4.90;99.90;;;;;;5110821;28;20039;-69
2022/12/07 09:57:54;;;;;;;5.10;1.73;;;4.90;99.90;;;;;;5110677;28;20476;-68
2022/12/07 10:00:21;;;;;;;8.10;2.00;;;4.90;99.90;;;;;;5109817;28;20032;-68
2022/12/07 10:02:50;;;;;;;4.97;1.77;;;5.00;99.90;;;;;;5110752;28;20036;-68
2022/12/07 10:05:39;;;;;;;7.43;2.22;;;5.10;99.90;;;;;;5103155;28;20092;-69
2022/12/07 10:08:05;;;;;;;7.28;2.42;;;5.10;99.90;;;;;;5062462;28;20105;-68
2022/12/07 10:10:34;;;;;;;8.10;2.40;;;5.10;99.90;;;;;;5103020;28;20085;-67
2022/12/07 10:13:06;;;;;;;10.43;2.78;;;5.20;99.90;;;;;;5109715;28;20062;-69
2022/12/07 10:15:56;;;;;;;9.38;2.75;;;5.20;99.90;;;;;;5110222;28;20039;-67
2022/12/07 10:18:38;;;;;;;5.15;1.60;;;5.20;99.90;;;;;;5101442;28;20071;-67
2022/12/07 10:21:17;;;;;;;4.38;1.02;;;5.30;99.90;;;;;;5109864;28;20043;-68
2022/12/07 10:24:02;;;;;;;8.40;1.67;;;5.40;99.90;;;;;;5109099;28;20039;-69
2022/12/07 10:26:37;;;;;;;;;;;5.60;99.90;;;;;;5101764;28;20059;-69
2022/12/07 10:29:22;;;;;;;6.32;1.38;;;5.60;99.90;;;;;;5109410;28;19964;-69
2022/12/07 10:31:56;;;;;;;4.80;0.93;;;5.60;99.90;;;;;;5109394;28;20074;-68
2022/12/07 10:34:34;;;;;;;3.70;1.05;;;5.50;99.90;;;;;;5091159;28;20096;-68
2022/12/07 10:37:09;;;;;;;3.03;0.93;;;5.50;99.90;;;;;;5110696;28;20044;-68
2022/12/07 10:39:58;;;;;;;1.92;0.55;;;5.40;99.90;;;;;;5109821;28;20122;-68
2022/12/07 10:42:33;;;;;;;2.65;1.05;;;5.40;99.90;;;;;;5098348;28;20134;-68
2022/12/07 10:45:15;;;;;;;;;;;5.30;99.90;;;;;;5110587;28;20050;-68
2022/12/07 10:47:59;;;;;;;2.42;0.65;;;5.30;99.90;;;;;;5110551;28;20612;-68
2022/12/07 10:50:56;;;;;;;6.28;1.25;;;5.30;99.90;;;;;;5109597;28;20051;-69
2022/12/07 10:53:28;;;;;;;3.40;0.80;;;5.30;99.90;;;;;;5108936;28;20047;-68
2022/12/07 10:56:11;;;;;;;3.83;0.80;;;5.20;99.90;;;;;;5107777;28;20070;-69
2022/12/07 10:59:14;;;;;;;3.80;1.00;;;5.30;99.90;;;;;;5111157;28;20039;-69
2022/12/07 11:01:54;;;;;;;3.72;0.90;;;5.20;99.90;;;;;;5107531;28;20073;-68
2022/12/07 11:04:43;;;;;;;4.55;1.10;;;5.20;99.90;;;;;;5092187;28;20123;-68
2022/12/07 11:07:24;;;;;;;4.63;1.10;;;5.20;99.90;;;;;;5106693;28;20091;-69
2022/12/07 11:09:52;;;;;;;3.08;1.00;;;5.30;99.90;;;;;;5092032;28;20595;-68
2022/12/07 11:12:27;;;;;;;3.22;1.27;;;5.30;99.90;;;;;;5105903;28;20040;-68
2022/12/07 11:14:55;;;;;;;2.28;0.75;;;5.40;99.90;;;;;;5108613;28;20047;-69
2022/12/07 11:18:01;;;;;;;3.92;0.98;;;5.60;99.90;;;;;;5098814;28;20031;-69
2022/12/07 11:20:49;;;;;;;5.07;1.30;;;5.60;99.90;;;;;;5085904;28;20052;-69
2022/12/07 11:23:44;;;;;;;5.30;1.33;;;5.70;99.90;;;;;;5109162;28;20077;-69
2022/12/07 11:26:24;;;;;;;4.80;0.85;;;5.90;99.90;;;;;;5101000;28;20070;-69
2022/12/07 11:29:10;;;;;;;5.47;1.25;;;6.00;99.90;;;;;;5088933;28;21267;-69
2022/12/07 11:32:06;;;;;;;4.38;1.00;;;6.10;99.90;;;;;;5076054;28;20526;-69
2022/12/07 11:35:01;;;;;;;5.03;1.15;;;6.10;99.90;;;;;;5104657;28;20567;-69
2022/12/07 11:37:33;;;;;;;5.22;1.13;;;6.20;99.90;;;;;;5085274;27;20079;-68
2022/12/07 11:40:13;;;;;;;6.38;1.70;;;6.20;99.90;;;;;;5110471;28;20481;-69
2022/12/07 11:43:05;;;;;;;8.93;1.48;;;6.20;99.90;;;;;;5108955;28;20050;-68
2022/12/07 11:45:34;;;;;;;9.43;2.33;;;6.30;99.90;;;;;;5094096;28;20519;-68
2022/12/07 11:48:29;;;;;;;8.02;1.70;;;6.40;99.90;;;;;;5107972;28;20061;-68
2022/12/07 11:50:58;;;;;;;4.65;1.38;;;6.40;99.90;;;;;;5100919;28;20042;-68
2022/12/07 11:53:42;;;;;;;8.02;1.90;;;6.40;99.90;;;;;;5108508;28;20039;-69
2022/12/07 11:56:13;;;;;;;5.05;1.10;;;6.40;99.90;;;;;;5108773;28;20047;-69
2022/12/07 11:58:48;;;;;;;6.47;1.40;;;6.40;99.90;;;;;;5108147;28;20039;-68
2022/12/07 12:01:17;;;;;;;;;;;6.10;99.90;;;;;;5107999;28;20049;-68
2022/12/07 12:04:09;;;;;;;5.60;1.75;;;5.70;99.90;;;;;;5090959;28;19919;-69
2022/12/07 12:06:35;;;;;;;4.63;1.10;;;5.50;99.90;;;;;;5068317;28;20060;-69
2022/12/07 12:09:12;;;;;;;7.15;1.05;;;5.30;99.90;;;;;;5102739;28;20399;-68
2022/12/07 12:11:46;;;;;;;4.07;1.60;;;5.20;99.90;;;;;;5108440;28;20039;-68
2022/12/07 12:14:48;;;;;;;5.07;1.90;;;5.00;99.90;;;;;;5109324;28;20088;-68
2022/12/07 12:17:39;;;;;;;10.30;4.75;;;4.90;99.90;;;;;;5102619;28;20050;-68
2022/12/07 12:20:43;;;;;;;14.15;7.22;;;4.80;99.90;;;;;;5087908;28;20090;-68
2022/12/07 12:23:20;;;;;;;8.52;3.40;;;4.80;99.90;;;;;;5093161;28;20059;-68
2022/12/07 12:25:50;;;;;;;21.80;15.65;;;4.70;99.90;;;;;;5107507;28;20055;-68
2022/12/07 12:28:40;;;;;;;9.85;4.75;;;4.70;99.90;;;;;;5107842;28;20078;-68
2022/12/07 12:31:19;;;;;;;11.88;6.13;;;4.70;99.90;;;;;;5103508;28;20044;-68
2022/12/07 12:33:52;;;;;;;19.52;10.05;;;4.70;99.90;;;;;;5108229;28;20048;-67
2022/12/07 12:36:41;;;;;;;26.85;15.05;;;4.70;99.90;;;;;;5101564;28;20091;-68
2022/12/07 12:39:07;;;;;;;13.00;6.47;;;4.70;99.90;;;;;;5094735;28;20050;-68
2022/12/07 12:41:39;;;;;;;8.45;3.35;;;4.70;99.90;;;;;;5108141;28;20044;-68
2022/12/07 12:44:19;;;;;;;8.27;3.45;;;4.70;99.90;;;;;;5107754;28;20053;-68
2022/12/07 12:46:59;;;;;;;11.00;4.07;;;4.80;99.90;;;;;;5108913;28;20118;-69
2022/12/07 12:49:25;;;;;;;14.18;8.70;;;4.80;99.90;;;;;;5107555;28;20058;-69
2022/12/07 12:51:57;;;;;;;6.20;2.22;;;4.80;99.90;;;;;;5110907;28;20039;-68
2022/12/07 12:54:25;;;;;;;12.20;7.95;;;4.80;99.90;;;;;;5110248;28;20501;-68
2022/12/07 12:57:10;;;;;;;8.90;2.30;;;4.90;99.90;;;;;;5112122;28;20040;-66
2022/12/07 12:59:58;;;;;;;10.85;3.50;;;4.90;99.90;;;;;;5110293;28;20035;-67
2022/12/07 13:02:38;;;;;;;8.25;2.13;;;4.90;99.90;;;;;;5110207;28;20051;-67
2022/12/07 13:05:12;;;;;;;6.88;2.35;;;4.90;99.90;;;;;;5111709;28;20047;-71
2022/12/07 13:07:44;;;;;;;4.60;2.17;;;4.90;99.90;;;;;;5109152;28;20031;-68
2022/12/07 13:10:28;;;;;;;7.63;1.30;;;4.90;99.90;;;;;;5111384;28;20101;-68
2022/12/07 13:12:59;;;;;;;7.07;2.70;;;5.00;99.90;;;;;;5112025;28;20051;-67
2022/12/07 13:15:48;;;;;;;9.82;1.83;;;4.90;99.90;;;;;;5097070;28;20502;-66
2022/12/07 13:18:31;;;;;;;7.18;1.50;;;4.90;99.90;;;;;;5114456;28;20560;-66